• Join FlightAware (Why Join?)
  • Login
  • US Flag 
04:14AM EDT


 

Airport Tracker/Info


-or-


 

Live Flight TrackerFlight Track Log ✈ SWA4743 ✈ 20-Sep-2013 ✈ KLAS - KMDW

Flight Track Log - Related Links

Times and Time Zones

All times are in EDT time to prevent confusion due to time zone crossing. See the SWA4743 flight status page for this flight to view local times or setup timezone preferences in your user account.

Time Position Orientation Groundspeed Altitude Reporting Facility
EDT Latitude Longitude Course Direction KTS MPH feet Rate Location/Type
10:47AM 36.0758 -115.2161 272° West 191 220 4,100  Level Los Angeles Center
10:48AM 36.0950 -115.2878 288° West 253 291 6,200 2,100 Climbing Los Angeles Center
10:48AM 36.1094 -115.2928 344° North 242 278 6,700 2,280 Climbing Los Angeles Center
10:49AM 36.1603 -115.2789 12° North 258 297 8,600 2,580 Climbing Los Angeles Center
10:49AM 36.1664 -115.2661 59° Northeast 267 307 9,100 1,920 Climbing Los Angeles Center
10:50AM 36.1928 -115.1925 66° East 281 323 10,600 2,220 Climbing Los Angeles Center
10:51AM 36.1972 -115.0753 87° East 336 387 13,600 2,640 Climbing Los Angeles Center
10:52AM 36.1981 -114.9539 89° East 349 402 16,100 2,760 Climbing Los Angeles Center
10:53AM 36.1989 -114.7975 90° East 374 430 19,400 2,820 Climbing Los Angeles Center
10:54AM 36.1986 -114.6628 90° East 387 445 21,900 2,280 Climbing Los Angeles Center
10:55AM 36.1972 -114.5222 91° East 402 463 24,100 1,920 Climbing Los Angeles Center
10:56AM 36.1947 -114.3742 91° East 422 486 25,900 1,740 Climbing Los Angeles Center
10:57AM 36.1944 -114.2192 90° East 442 509 27,800 1,740 Climbing Los Angeles Center
10:58AM 36.2144 -114.0639 81° East 454 522 29,600 1,500 Climbing Los Angeles Center
10:59AM 36.2381 -113.8714 81° East 468 539 31,000 780 Climbing Los Angeles Center
11:00AM 36.2575 -113.7086 82° East 476 548 31,300 900 Climbing Los Angeles Center
11:01AM 36.2761 -113.5433 82° East 482 555 32,900 1,500 Climbing Los Angeles Center
11:02AM 36.2944 -113.3783 82° East 484 557 34,400 1,320 Climbing Los Angeles Center
11:03AM 36.3200 -113.2031 80° East 489 563 35,700 1,140 Climbing Los Angeles Center
11:04AM 36.3772 -113.0508 65° Northeast 491 565 36,800 840 Climbing Los Angeles Center
11:05AM 36.4344 -112.8989 65° Northeast 490 564 37,500 840 Climbing Los Angeles Center
11:06AM 36.5047 -112.7097 65° Northeast 502 578 38,600 720 Climbing Los Angeles Center
11:07AM 36.5631 -112.5508 65° Northeast 507 583 39,000 180 Climbing Los Angeles Center
11:08AM 36.6208 -112.3919 66° East 506 582 39,000  Level Los Angeles Center
11:09AM 36.6778 -112.2353 66° East 501 577 39,000  Level Los Angeles Center
11:11AM 36.7458 -112.0469 66° East 498 573 39,000  Level Los Angeles Center
11:12AM 36.8117 -111.8572 67° East 498 573 39,000  Level Los Angeles Center
11:13AM 36.8686 -111.7011 65° Northeast 497 572 39,000  Level Los Angeles Center
11:14AM 36.9236 -111.5444 66° East 495 570 39,000  Level Los Angeles Center
11:15AM 36.9786 -111.3889 66° East 494 568 39,000  Level Los Angeles Center
11:16AM 37.0450 -111.2011 66° East 494 568 39,000  Level Los Angeles Center
11:17AM 37.1197 -110.9847 67° East 488 562 39,000  Level Denver Center
11:18AM 37.1622 -110.8606 67° East 488 562 39,000  Level Denver Center
11:19AM 37.2264 -110.6753 66° East 483 556 39,000  Level Denver Center
11:20AM 37.2786 -110.5214 67° East 481 554 39,000  Level Denver Center
11:21AM 37.3322 -110.3672 66° East 483 556 39,000  Level Denver Center
11:22AM 37.3839 -110.2147 67° East 478 550 39,000  Level Denver Center
11:23AM 37.4386 -110.0503 67° East 477 549 39,000  Level Denver Center
11:24AM 37.4964 -109.8794 67° East 475 547 39,000  Level Denver Center
11:25AM 37.5464 -109.7303 67° East 479 551 39,000  Level Denver Center
11:26AM 37.6031 -109.5600 67° East 474 545 39,000  Level Denver Center
11:28AM 37.6517 -109.4119 67° East 475 547 39,000  Level Denver Center
11:29AM 37.7167 -109.2158 67° East 473 544 39,000  Level Denver Center
11:30AM 37.7639 -109.0689 68° East 472 543 39,000  Level Denver Center
11:31AM 37.8200 -108.8969 68° East 473 544 39,000  Level Denver Center
11:32AM 37.8722 -108.7503 66° East 475 547 39,000  Level Denver Center
11:33AM 37.9322 -108.5786 66° East 475 547 39,000  Level Denver Center
11:34AM 37.9825 -108.4322 66° East 476 548 39,000  Level Denver Center
11:35AM 38.0411 -108.2592 67° East 476 548 39,000  Level Denver Center
11:36AM 38.0942 -108.1078 66° East 471 542 39,000  Level Denver Center
11:37AM 38.1428 -107.9619 67° East 470 541 39,000  Level Denver Center
11:38AM 38.1997 -107.7947 67° East 465 535 39,000  Level Denver Center
11:39AM 38.2483 -107.6517 67° East 462 532 39,000  Level Denver Center
11:40AM 38.3042 -107.4833 67° East 464 534 39,000  Level Denver Center
11:41AM 38.3514 -107.3403 67° East 461 531 39,000  Level Denver Center
11:42AM 38.4039 -107.1861 66° East 464 534 39,000  Level Denver Center
11:43AM 38.4533 -107.0367 67° East 460 529 39,000  Level Denver Center
11:44AM 38.4858 -106.8772 75° East 465 535 39,000  Level Denver Center
11:45AM 38.5261 -106.6858 75° East 467 537 39,000  Level Denver Center
11:47AM 38.5661 -106.4950 75° East 466 536 39,000  Level Denver Center
11:48AM 38.5992 -106.3347 75° East 467 537 39,000  Level Denver Center
11:49AM 38.6364 -106.1489 76° East 467 537 39,000  Level Denver Center
11:50AM 38.6708 -105.9886 75° East 468 539 39,000  Level Denver Center
11:51AM 38.7022 -105.8278 76° East 467 537 39,000  Level Denver Center
11:52AM 38.7342 -105.6669 76° East 469 540 39,000  Level Denver Center
11:53AM 38.7667 -105.5053 75° East 472 543 39,000  Level Denver Center
11:54AM 38.7989 -105.3400 76° East 478 550 39,000  Level Denver Center
11:55AM 38.8369 -105.1436 76° East 477 549 39,000  Level Denver Center
11:56AM 38.8686 -104.9808 76° East 474 545 39,000  Level Denver Center
11:57AM 38.9006 -104.8175 76° East 475 547 39,000  Level Denver Center
11:58AM 38.9314 -104.6542 76° East 474 545 39,000  Level Denver Center
11:59AM 38.9678 -104.4586 76° East 473 544 39,000  Level Denver Center
12:00PM 38.9989 -104.2933 76° East 477 549 39,000  Level Denver Center
12:01PM 39.0300 -104.1264 76° East 482 555 39,000  Level Denver Center
12:02PM 39.0603 -103.9608 77° East 481 554 39,000  Level Denver Center
12:03PM 39.0908 -103.7922 77° East 485 558 39,000  Level Denver Center
12:04PM 39.1286 -103.5900 76° East 487 560 39,000  Level Denver Center
12:05PM 39.1589 -103.4194 77° East 491 565 39,000  Level Denver Center
12:06PM 39.1889 -103.2481 77° East 493 567 39,000  Level Denver Center
12:07PM 39.2194 -103.0767 77° East 493 567 39,000  Level Denver Center
12:08PM 39.2483 -102.9042 78° East 494 568 39,000  Level Denver Center
12:09PM 39.2803 -102.7208 77° East 496 571 39,000  Level Denver Center
12:10PM 39.3125 -102.5275 78° East 493 567 39,000  Level Denver Center
12:11PM 39.3417 -102.3581 77° East 502 578 39,000  Level Denver Center
12:12PM 39.3714 -102.1850 77° East 496 571 39,000  Level Denver Center
12:13PM 39.4025 -101.9881 78° East 501 577 39,000  Level Denver Center
12:14PM 39.4308 -101.8211 78° East 500 575 39,000  Level Denver Center
12:16PM 39.4625 -101.6253 78° East 499 574 39,000  Level Denver Center
12:17PM 39.4886 -101.4581 79° East 499 574 39,000  Level Denver Center
12:18PM 39.5197 -101.2636 78° East 497 572 39,000  Level Denver Center
12:19PM 39.5461 -101.0967 78° East 495 570 39,000  Level Denver Center
12:20PM 39.5769 -100.9003 78° East 499 574 39,000  Level Denver Center
12:21PM 39.6019 -100.7319 79° East 498 573 39,000  Level Denver Center
12:22PM 39.6331 -100.5364 78° East 498 573 39,000  Level Denver Center
12:23PM 39.6578 -100.3661 79° East 502 578 39,000  Level Denver Center
12:24PM 39.6878 -100.1653 79° East 507 583 39,000  Level Denver Center
12:25PM 39.7122 -99.9947 79° East 505 581 39,000  Level Denver Center
12:26PM 39.7411 -99.8006 79° East 507 583 39,000  Level Denver Center
12:27PM 39.7669 -99.6203 79° East 508 585 39,000  Level Denver Center
12:28PM 39.7922 -99.4394 80° East 509 586 39,000  Level Denver Center
12:29PM 39.8178 -99.2578 80° East 511 588 39,000  Level Denver Center
12:30PM 39.8481 -99.0406 80° East 510 587 39,000  Level Denver Center
12:31PM 39.8725 -98.8589 80° East 512 589 39,000  Level Denver Center
12:32PM 39.8875 -98.7519 80° East 511 588 39,000  Level Minneapolis Center
12:33PM 39.9108 -98.5694 80° East 512 589 39,000  Level Minneapolis Center
12:34PM 39.9403 -98.3481 80° East 517 595 39,000  Level Minneapolis Center
12:35PM 39.9636 -98.1639 81° East 518 596 39,000  Level Minneapolis Center
12:36PM 39.9881 -97.9781 80° East 519 597 39,000  Level Minneapolis Center
12:37PM 40.0114 -97.7906 81° East 523 602 39,000  Level Minneapolis Center
12:38PM 40.0353 -97.6028 81° East 525 604 39,000  Level Minneapolis Center
12:39PM 40.0575 -97.4161 81° East 524 603 39,000  Level Minneapolis Center
12:40PM 40.0831 -97.2103 81° East 533 613 39,000  Level Minneapolis Center
12:41PM 40.1058 -97.0189 81° East 536 617 39,000  Level Minneapolis Center
12:42PM 40.1328 -96.7889 81° East 536 617 39,000  Level Minneapolis Center
12:43PM 40.1550 -96.5956 81° East 538 619 39,000  Level Minneapolis Center
12:44PM 40.1778 -96.4022 81° East 540 621 39,000  Level Minneapolis Center
12:45PM 40.2003 -96.2075 81° East 542 624 39,000  Level Minneapolis Center
12:46PM 40.2356 -96.0147 76° East 545 627 39,000  Level Minneapolis Center
12:47PM 40.2794 -95.7786 76° East 556 640 39,000  Level Minneapolis Center
12:48PM 40.3144 -95.5864 77° East 552 635 39,000  Level Minneapolis Center
12:49PM 40.3492 -95.3922 77° East 550 633 39,000  Level Minneapolis Center
12:50PM 40.3847 -95.1981 76° East 550 633 39,000  Level Minneapolis Center
12:51PM 40.4194 -95.0022 77° East 551 634 39,000  Level Minneapolis Center
12:52PM 40.4544 -94.8069 77° East 552 635 39,000  Level Minneapolis Center
12:53PM 40.4944 -94.5747 77° East 548 631 39,000  Level Minneapolis Center
12:54PM 40.5286 -94.3731 77° East 551 634 39,000  Level Minneapolis Center
12:56PM 40.5622 -94.1783 77° East 550 633 39,000  Level Minneapolis Center
12:57PM 40.5936 -93.9836 78° East 549 632 39,000  Level Minneapolis Center
12:58PM 40.6242 -93.7894 78° East 546 628 39,000  Level Minneapolis Center
12:59PM 40.6508 -93.5922 80° East 549 632 39,000  Level Minneapolis Center
01:00PM 40.6914 -93.3131 79° East 552 635 39,000 -360 Level Chicago Center
01:01PM 40.7189 -93.1167 79° East 550 633 38,200 -900 Descending Chicago Center
01:02PM 40.7478 -92.9192 79° East 548 631 37,200 -960 Descending Chicago Center
01:03PM 40.7753 -92.7211 80° East 548 631 36,300 -960 Descending Chicago Center
01:04PM 40.8019 -92.5261 80° East 541 623 35,300 -660 Descending Chicago Center
01:05PM 40.8267 -92.3325 80° East 535 616 35,000 -420 Descending Chicago Center
01:06PM 40.8583 -92.1028 80° East 533 613 34,500 -720 Descending Chicago Center
01:07PM 40.8828 -91.9103 80° East 533 613 33,600 -960 Descending Chicago Center
01:08PM 40.9081 -91.7203 80° East 529 609 32,600 -1,020 Descending Chicago Center
01:09PM 40.9314 -91.5342 81° East 521 600 31,600 -780 Descending Chicago Center
01:10PM 40.9547 -91.3514 80° East 512 589 31,000 -1,020 Descending Chicago Center
01:11PM 40.9803 -91.1331 81° East 502 578 29,600 -1,800 Descending Chicago Center
01:12PM 41.0019 -90.9544 81° East 494 568 27,300 -2,220 Descending Chicago Center
01:13PM 41.0231 -90.7783 81° East 484 557 25,100 -1,740 Descending Chicago Center
01:14PM 41.0439 -90.6111 81° East 464 534 23,700 -1,020 Descending Chicago Center
01:15PM 41.0631 -90.4528 81° East 439 505 23,000 -360 Descending Chicago Center
01:16PM 41.0819 -90.2931 81° East 437 503 23,000 -480 Level Chicago Center
01:17PM 41.0989 -90.1347 82° East 432 497 22,100 -1,320 Descending Chicago Center
01:19PM 41.1172 -89.9800 81° East 425 489 20,300 -2,040 Descending Chicago Center
01:20PM 41.1375 -89.8008 81° East 410 472 17,900 -1,860 Descending Chicago Center
01:21PM 41.1528 -89.6586 82° East 392 451 16,500 -1,200 Descending Chicago Center
01:22PM 41.1656 -89.5231 83° East 372 428 15,500 -1,020 Descending Chicago Center
01:23PM 41.1739 -89.3847 85° East 374 430 14,500 -1,020 Descending Chicago Center
01:24PM 41.1828 -89.2494 85° East 370 426 13,500 -960 Descending Chicago Center
01:25PM 41.1906 -89.1186 85° East 362 417 12,500 -1,080 Descending Chicago Center
01:26PM 41.2025 -88.9606 84° East 360 414 11,300 -1,080 Descending Chicago Center
01:27PM 41.2094 -88.8350 86° East 349 402 10,300 -600 Descending Chicago Center
01:28PM 41.2336 -88.7250 74° East 324 373 10,100 -360 Descending Chicago Center
01:29PM 41.2972 -88.6450 43° Northeast 312 359 9,600 -780 Descending Chicago Center
01:30PM 41.3603 -88.5619 45° Northeast 315 362 8,500 -1,680 Descending Chicago Center
01:31PM 41.4311 -88.4683 45° Northeast 303 349 6,200 -1,260 Descending Chicago Center
01:32PM 41.4672 -88.3761 62° Northeast 293 337 6,000 -120 Descending Chicago Center
01:33PM 41.4836 -88.2733 78° East 283 326 6,000  Level Chicago Center
01:34PM 41.4994 -88.1689 79° East 285 328 6,000  Level Chicago Center
01:35PM 41.5153 -88.0622 79° East 286 329 6,000  Level Chicago Center
01:36PM 41.5314 -87.9567 78° East 286 329 6,000 -300 Level Chicago Center
01:37PM 41.5478 -87.8508 78° East 288 331 5,500 -780 Descending Chicago Center
01:38PM 41.5644 -87.7442 78° East 291 335 4,500 -1,020 Descending Chicago Center
01:39PM 41.6106 -87.6453 58° Northeast 273 314 3,500 -780 Descending Chicago Center
01:40PM 41.6544 -87.5928 42° Northeast 245 282 3,000 -540 Descending Chicago Center
01:41PM 41.6950 -87.6189 334° Northwest 194 223 2,500 -420 Descending Chicago Center
01:42PM 41.7225 -87.6658 308° West 174 200 2,200 -600 Descending Chicago Center
01:43PM 41.7569 -87.7128 315° West 159 183 1,300 -660 Descending Chicago Center
01:44PM 41.7783 -87.7431 313° West 149 171 900 -420 Descending Chicago Center